sensor_id;sensor_type;location;lat;lon;timestamp;P1;durP1;ratioP1;P2;durP2;ratioP2
4460;SDS011;2243;48.812;9.232;2022-07-06T00:01:52;4.90;;;2.80;;
4460;SDS011;2243;48.812;9.232;2022-07-06T00:04:23;3.10;;;2.90;;
4460;SDS011;2243;48.812;9.232;2022-07-06T00:06:54;3.13;;;3.03;;
4460;SDS011;2243;48.812;9.232;2022-07-06T00:09:25;3.23;;;3.10;;
4460;SDS011;2243;48.812;9.232;2022-07-06T00:11:56;4.40;;;2.47;;
4460;SDS011;2243;48.812;9.232;2022-07-06T00:14:27;3.03;;;2.83;;
4460;SDS011;2243;48.812;9.232;2022-07-06T00:16:58;2.87;;;2.70;;
4460;SDS011;2243;48.812;9.232;2022-07-06T00:19:29;4.23;;;3.00;;
4460;SDS011;2243;48.812;9.232;2022-07-06T00:22:00;2.80;;;2.70;;
4460;SDS011;2243;48.812;9.232;2022-07-06T00:24:31;2.70;;;2.50;;
4460;SDS011;2243;48.812;9.232;2022-07-06T00:27:02;4.63;;;3.10;;
4460;SDS011;2243;48.812;9.232;2022-07-06T00:29:34;6.90;;;3.10;;
4460;SDS011;2243;48.812;9.232;2022-07-06T00:32:05;3.93;;;3.53;;
4460;SDS011;2243;48.812;9.232;2022-07-06T00:34:36;4.30;;;3.53;;
4460;SDS011;2243;48.812;9.232;2022-07-06T00:37:09;3.97;;;3.53;;
4460;SDS011;2243;48.812;9.232;2022-07-06T00:39:40;4.10;;;3.23;;
4460;SDS011;2243;48.812;9.232;2022-07-06T00:42:11;3.53;;;2.93;;
4460;SDS011;2243;48.812;9.232;2022-07-06T00:44:42;3.23;;;3.13;;
4460;SDS011;2243;48.812;9.232;2022-07-06T00:47:14;3.60;;;3.30;;
4460;SDS011;2243;48.812;9.232;2022-07-06T00:49:45;3.33;;;3.13;;
4460;SDS011;2243;48.812;9.232;2022-07-06T00:52:34;6.63;;;3.53;;
4460;SDS011;2243;48.812;9.232;2022-07-06T00:55:05;2.87;;;2.70;;
4460;SDS011;2243;48.812;9.232;2022-07-06T00:57:37;3.73;;;3.47;;
4460;SDS011;2243;48.812;9.232;2022-07-06T01:00:10;3.73;;;3.53;;
4460;SDS011;2243;48.812;9.232;2022-07-06T01:02:44;3.47;;;3.17;;
4460;SDS011;2243;48.812;9.232;2022-07-06T01:05:15;4.20;;;3.47;;
4460;SDS011;2243;48.812;9.232;2022-07-06T01:07:50;3.40;;;3.10;;
4460;SDS011;2243;48.812;9.232;2022-07-06T01:10:23;4.00;;;3.70;;
4460;SDS011;2243;48.812;9.232;2022-07-06T01:12:54;3.87;;;3.57;;
4460;SDS011;2243;48.812;9.232;2022-07-06T01:15:27;6.87;;;4.00;;
4460;SDS011;2243;48.812;9.232;2022-07-06T01:17:58;6.83;;;3.67;;
4460;SDS011;2243;48.812;9.232;2022-07-06T01:20:30;4.40;;;3.37;;
4460;SDS011;2243;48.812;9.232;2022-07-06T01:23:01;3.57;;;3.30;;
4460;SDS011;2243;48.812;9.232;2022-07-06T01:25:32;3.53;;;3.07;;
4460;SDS011;2243;48.812;9.232;2022-07-06T01:28:03;3.80;;;3.50;;
4460;SDS011;2243;48.812;9.232;2022-07-06T01:30:35;3.57;;;3.27;;
4460;SDS011;2243;48.812;9.232;2022-07-06T01:33:06;3.90;;;3.67;;
4460;SDS011;2243;48.812;9.232;2022-07-06T01:35:37;4.13;;;3.40;;
4460;SDS011;2243;48.812;9.232;2022-07-06T01:38:09;4.47;;;4.17;;
4460;SDS011;2243;48.812;9.232;2022-07-06T01:40:39;4.87;;;3.93;;
4460;SDS011;2243;48.812;9.232;2022-07-06T01:43:11;4.90;;;3.60;;
4460;SDS011;2243;48.812;9.232;2022-07-06T01:45:41;3.87;;;3.50;;
4460;SDS011;2243;48.812;9.232;2022-07-06T01:48:13;3.17;;;2.97;;
4460;SDS011;2243;48.812;9.232;2022-07-06T01:50:43;5.13;;;3.13;;
4460;SDS011;2243;48.812;9.232;2022-07-06T01:53:14;3.57;;;3.33;;
4460;SDS011;2243;48.812;9.232;2022-07-06T01:55:45;4.03;;;3.30;;
4460;SDS011;2243;48.812;9.232;2022-07-06T01:58:16;3.47;;;3.17;;
4460;SDS011;2243;48.812;9.232;2022-07-06T02:00:48;3.30;;;3.10;;
4460;SDS011;2243;48.812;9.232;2022-07-06T02:03:20;8.60;;;3.23;;
4460;SDS011;2243;48.812;9.232;2022-07-06T02:05:51;3.47;;;3.17;;
4460;SDS011;2243;48.812;9.232;2022-07-06T02:08:22;3.53;;;3.20;;
4460;SDS011;2243;48.812;9.232;2022-07-06T02:10:54;4.00;;;3.70;;
4460;SDS011;2243;48.812;9.232;2022-07-06T02:13:25;3.30;;;3.00;;
4460;SDS011;2243;48.812;9.232;2022-07-06T02:15:56;3.77;;;3.50;;
4460;SDS011;2243;48.812;9.232;2022-07-06T02:18:27;3.50;;;3.20;;
4460;SDS011;2243;48.812;9.232;2022-07-06T02:20:58;3.03;;;2.83;;
4460;SDS011;2243;48.812;9.232;2022-07-06T02:23:29;3.67;;;3.47;;
4460;SDS011;2243;48.812;9.232;2022-07-06T02:26:00;5.23;;;3.30;;
4460;SDS011;2243;48.812;9.232;2022-07-06T02:28:31;3.03;;;2.73;;
4460;SDS011;2243;48.812;9.232;2022-07-06T02:31:02;4.83;;;3.10;;
4460;SDS011;2243;48.812;9.232;2022-07-06T02:33:33;3.43;;;3.13;;
4460;SDS011;2243;48.812;9.232;2022-07-06T02:36:04;3.30;;;3.00;;
4460;SDS011;2243;48.812;9.232;2022-07-06T02:38:35;3.37;;;3.13;;
4460;SDS011;2243;48.812;9.232;2022-07-06T02:41:06;4.57;;;3.50;;
4460;SDS011;2243;48.812;9.232;2022-07-06T02:43:37;4.43;;;2.80;;
4460;SDS011;2243;48.812;9.232;2022-07-06T02:46:09;4.03;;;3.87;;
4460;SDS011;2243;48.812;9.232;2022-07-06T02:48:40;4.00;;;3.33;;
4460;SDS011;2243;48.812;9.232;2022-07-06T02:51:11;3.40;;;3.10;;
4460;SDS011;2243;48.812;9.232;2022-07-06T02:53:42;5.77;;;3.67;;
4460;SDS011;2243;48.812;9.232;2022-07-06T02:56:13;8.20;;;3.57;;
4460;SDS011;2243;48.812;9.232;2022-07-06T02:58:44;8.43;;;4.00;;
4460;SDS011;2243;48.812;9.232;2022-07-06T03:01:15;3.50;;;2.97;;
4460;SDS011;2243;48.812;9.232;2022-07-06T03:03:46;3.33;;;3.20;;
4460;SDS011;2243;48.812;9.232;2022-07-06T03:06:17;3.10;;;2.90;;
4460;SDS011;2243;48.812;9.232;2022-07-06T03:08:48;3.37;;;3.17;;
4460;SDS011;2243;48.812;9.232;2022-07-06T03:11:19;3.20;;;3.00;;
4460;SDS011;2243;48.812;9.232;2022-07-06T03:13:50;3.60;;;3.40;;
4460;SDS011;2243;48.812;9.232;2022-07-06T03:16:20;3.77;;;3.40;;
4460;SDS011;2243;48.812;9.232;2022-07-06T03:18:52;6.87;;;3.40;;
4460;SDS011;2243;48.812;9.232;2022-07-06T03:21:23;3.20;;;3.00;;
4460;SDS011;2243;48.812;9.232;2022-07-06T03:23:55;6.67;;;3.93;;
4460;SDS011;2243;48.812;9.232;2022-07-06T03:26:26;4.00;;;3.70;;
4460;SDS011;2243;48.812;9.232;2022-07-06T03:28:57;5.73;;;3.70;;
4460;SDS011;2243;48.812;9.232;2022-07-06T03:31:28;3.80;;;3.33;;
4460;SDS011;2243;48.812;9.232;2022-07-06T03:33:59;4.93;;;4.30;;
4460;SDS011;2243;48.812;9.232;2022-07-06T03:36:30;6.90;;;4.20;;
4460;SDS011;2243;48.812;9.232;2022-07-06T03:39:08;3.80;;;3.57;;
4460;SDS011;2243;48.812;9.232;2022-07-06T03:41:39;7.30;;;4.10;;
4460;SDS011;2243;48.812;9.232;2022-07-06T03:44:10;4.07;;;3.77;;
4460;SDS011;2243;48.812;9.232;2022-07-06T03:46:41;4.00;;;3.80;;
4460;SDS011;2243;48.812;9.232;2022-07-06T03:49:13;3.63;;;3.33;;
4460;SDS011;2243;48.812;9.232;2022-07-06T03:51:44;3.50;;;3.30;;
4460;SDS011;2243;48.812;9.232;2022-07-06T03:54:15;5.70;;;5.20;;
4460;SDS011;2243;48.812;9.232;2022-07-06T03:56:46;4.10;;;3.37;;
4460;SDS011;2243;48.812;9.232;2022-07-06T03:59:17;4.83;;;3.60;;
4460;SDS011;2243;48.812;9.232;2022-07-06T04:01:48;7.10;;;3.87;;
4460;SDS011;2243;48.812;9.232;2022-07-06T04:04:19;6.13;;;3.53;;
4460;SDS011;2243;48.812;9.232;2022-07-06T04:06:50;5.00;;;4.23;;
4460;SDS011;2243;48.812;9.232;2022-07-06T04:09:21;4.40;;;4.03;;
4460;SDS011;2243;48.812;9.232;2022-07-06T04:11:52;3.60;;;3.40;;
4460;SDS011;2243;48.812;9.232;2022-07-06T04:14:23;4.17;;;3.87;;
4460;SDS011;2243;48.812;9.232;2022-07-06T04:16:54;4.93;;;4.40;;
4460;SDS011;2243;48.812;9.232;2022-07-06T04:19:28;4.20;;;3.80;;
4460;SDS011;2243;48.812;9.232;2022-07-06T04:21:59;4.77;;;4.37;;
4460;SDS011;2243;48.812;9.232;2022-07-06T04:24:39;4.10;;;3.90;;
4460;SDS011;2243;48.812;9.232;2022-07-06T04:27:10;4.40;;;3.97;;
4460;SDS011;2243;48.812;9.232;2022-07-06T04:29:41;4.80;;;4.40;;
4460;SDS011;2243;48.812;9.232;2022-07-06T04:32:12;4.40;;;3.83;;
4460;SDS011;2243;48.812;9.232;2022-07-06T04:34:43;5.80;;;5.40;;
4460;SDS011;2243;48.812;9.232;2022-07-06T04:37:14;5.53;;;4.37;;
4460;SDS011;2243;48.812;9.232;2022-07-06T04:39:45;10.13;;;4.83;;
4460;SDS011;2243;48.812;9.232;2022-07-06T04:42:15;4.90;;;4.40;;
4460;SDS011;2243;48.812;9.232;2022-07-06T04:44:46;4.80;;;4.40;;
4460;SDS011;2243;48.812;9.232;2022-07-06T04:47:17;5.77;;;5.27;;
4460;SDS011;2243;48.812;9.232;2022-07-06T04:49:48;5.57;;;5.07;;
4460;SDS011;2243;48.812;9.232;2022-07-06T04:52:19;4.90;;;4.40;;
4460;SDS011;2243;48.812;9.232;2022-07-06T04:54:50;5.70;;;5.17;;
4460;SDS011;2243;48.812;9.232;2022-07-06T04:57:21;6.00;;;4.93;;
4460;SDS011;2243;48.812;9.232;2022-07-06T04:59:52;10.03;;;4.53;;
4460;SDS011;2243;48.812;9.232;2022-07-06T05:02:23;5.67;;;5.17;;
4460;SDS011;2243;48.812;9.232;2022-07-06T05:04:54;6.00;;;5.20;;
4460;SDS011;2243;48.812;9.232;2022-07-06T05:07:25;5.53;;;5.13;;
4460;SDS011;2243;48.812;9.232;2022-07-06T05:10:02;5.50;;;5.10;;
4460;SDS011;2243;48.812;9.232;2022-07-06T05:12:33;12.40;;;5.07;;
4460;SDS011;2243;48.812;9.232;2022-07-06T05:15:04;6.63;;;5.90;;
4460;SDS011;2243;48.812;9.232;2022-07-06T05:17:35;6.80;;;4.57;;
4460;SDS011;2243;48.812;9.232;2022-07-06T05:20:07;5.20;;;4.90;;
4460;SDS011;2243;48.812;9.232;2022-07-06T05:22:39;6.53;;;5.43;;
4460;SDS011;2243;48.812;9.232;2022-07-06T05:25:15;5.23;;;4.93;;
4460;SDS011;2243;48.812;9.232;2022-07-06T05:27:47;5.90;;;4.90;;
4460;SDS011;2243;48.812;9.232;2022-07-06T05:30:18;6.37;;;5.77;;
4460;SDS011;2243;48.812;9.232;2022-07-06T05:32:49;5.37;;;4.87;;
4460;SDS011;2243;48.812;9.232;2022-07-06T05:35:20;5.10;;;4.77;;
4460;SDS011;2243;48.812;9.232;2022-07-06T05:38:11;5.10;;;4.80;;
4460;SDS011;2243;48.812;9.232;2022-07-06T05:40:42;7.27;;;5.10;;
4460;SDS011;2243;48.812;9.232;2022-07-06T05:43:13;6.20;;;4.57;;
4460;SDS011;2243;48.812;9.232;2022-07-06T05:45:44;4.50;;;4.20;;
4460;SDS011;2243;48.812;9.232;2022-07-06T05:48:15;5.97;;;4.63;;
4460;SDS011;2243;48.812;9.232;2022-07-06T05:51:05;5.13;;;4.77;;
4460;SDS011;2243;48.812;9.232;2022-07-06T05:53:36;4.50;;;4.20;;
4460;SDS011;2243;48.812;9.232;2022-07-06T05:56:07;4.40;;;4.00;;
4460;SDS011;2243;48.812;9.232;2022-07-06T05:58:38;11.90;;;4.60;;
4460;SDS011;2243;48.812;9.232;2022-07-06T06:01:09;4.73;;;4.43;;
4460;SDS011;2243;48.812;9.232;2022-07-06T06:03:40;4.80;;;4.00;;
4460;SDS011;2243;48.812;9.232;2022-07-06T06:06:11;7.43;;;4.60;;
4460;SDS011;2243;48.812;9.232;2022-07-06T06:08:42;8.43;;;4.50;;
4460;SDS011;2243;48.812;9.232;2022-07-06T06:11:13;9.63;;;5.10;;
4460;SDS011;2243;48.812;9.232;2022-07-06T06:13:44;5.40;;;4.90;;
4460;SDS011;2243;48.812;9.232;2022-07-06T06:16:15;5.17;;;4.70;;
4460;SDS011;2243;48.812;9.232;2022-07-06T06:18:47;4.43;;;4.03;;
4460;SDS011;2243;48.812;9.232;2022-07-06T06:21:18;4.83;;;4.50;;
4460;SDS011;2243;48.812;9.232;2022-07-06T06:23:50;5.33;;;4.93;;
4460;SDS011;2243;48.812;9.232;2022-07-06T06:26:21;7.73;;;4.37;;
4460;SDS011;2243;48.812;9.232;2022-07-06T06:28:52;4.60;;;4.30;;
4460;SDS011;2243;48.812;9.232;2022-07-06T06:31:23;4.70;;;4.30;;
4460;SDS011;2243;48.812;9.232;2022-07-06T06:33:54;4.80;;;4.50;;
4460;SDS011;2243;48.812;9.232;2022-07-06T06:36:25;5.43;;;4.93;;
4460;SDS011;2243;48.812;9.232;2022-07-06T06:38:56;4.63;;;4.33;;
4460;SDS011;2243;48.812;9.232;2022-07-06T06:41:27;4.17;;;3.87;;
4460;SDS011;2243;48.812;9.232;2022-07-06T06:43:58;4.63;;;4.23;;
4460;SDS011;2243;48.812;9.232;2022-07-06T06:46:29;8.10;;;4.30;;
4460;SDS011;2243;48.812;9.232;2022-07-06T06:49:00;5.20;;;4.57;;
4460;SDS011;2243;48.812;9.232;2022-07-06T06:51:32;12.77;;;4.70;;
4460;SDS011;2243;48.812;9.232;2022-07-06T06:54:03;5.50;;;4.70;;
4460;SDS011;2243;48.812;9.232;2022-07-06T06:56:34;7.63;;;4.90;;
4460;SDS011;2243;48.812;9.232;2022-07-06T06:59:05;5.03;;;4.63;;
4460;SDS011;2243;48.812;9.232;2022-07-06T07:01:47;7.83;;;4.13;;
4460;SDS011;2243;48.812;9.232;2022-07-06T07:04:25;4.57;;;4.20;;
4460;SDS011;2243;48.812;9.232;2022-07-06T07:06:56;5.40;;;4.93;;
4460;SDS011;2243;48.812;9.232;2022-07-06T07:09:27;4.20;;;4.00;;
4460;SDS011;2243;48.812;9.232;2022-07-06T07:11:58;6.13;;;4.53;;
4460;SDS011;2243;48.812;9.232;2022-07-06T07:14:29;4.00;;;3.80;;
4460;SDS011;2243;48.812;9.232;2022-07-06T07:17:00;4.60;;;4.27;;
4460;SDS011;2243;48.812;9.232;2022-07-06T07:19:31;11.00;;;4.70;;
4460;SDS011;2243;48.812;9.232;2022-07-06T07:22:03;6.50;;;3.73;;
4460;SDS011;2243;48.812;9.232;2022-07-06T07:24:34;4.00;;;3.70;;
4460;SDS011;2243;48.812;9.232;2022-07-06T07:27:05;4.60;;;4.30;;
4460;SDS011;2243;48.812;9.232;2022-07-06T07:29:36;4.27;;;3.97;;
4460;SDS011;2243;48.812;9.232;2022-07-06T07:32:07;4.97;;;4.43;;
4460;SDS011;2243;48.812;9.232;2022-07-06T07:34:38;4.37;;;3.93;;
4460;SDS011;2243;48.812;9.232;2022-07-06T07:37:11;4.40;;;4.00;;
4460;SDS011;2243;48.812;9.232;2022-07-06T07:39:42;6.00;;;5.00;;
4460;SDS011;2243;48.812;9.232;2022-07-06T07:42:13;5.47;;;4.37;;
4460;SDS011;2243;48.812;9.232;2022-07-06T07:44:47;3.70;;;3.40;;
4460;SDS011;2243;48.812;9.232;2022-07-06T07:47:18;5.87;;;4.33;;
4460;SDS011;2243;48.812;9.232;2022-07-06T07:49:50;7.83;;;4.03;;
4460;SDS011;2243;48.812;9.232;2022-07-06T07:52:21;7.40;;;4.60;;
4460;SDS011;2243;48.812;9.232;2022-07-06T07:54:51;7.63;;;4.10;;
4460;SDS011;2243;48.812;9.232;2022-07-06T07:57:42;5.97;;;4.23;;
4460;SDS011;2243;48.812;9.232;2022-07-06T08:00:13;6.40;;;4.07;;
4460;SDS011;2243;48.812;9.232;2022-07-06T08:02:45;5.47;;;4.97;;
4460;SDS011;2243;48.812;9.232;2022-07-06T08:05:16;5.53;;;4.07;;
4460;SDS011;2243;48.812;9.232;2022-07-06T08:07:47;4.70;;;4.30;;
4460;SDS011;2243;48.812;9.232;2022-07-06T08:10:18;6.50;;;4.80;;
4460;SDS011;2243;48.812;9.232;2022-07-06T08:12:50;5.80;;;4.87;;
4460;SDS011;2243;48.812;9.232;2022-07-06T08:15:21;7.63;;;4.90;;
4460;SDS011;2243;48.812;9.232;2022-07-06T08:17:52;7.77;;;4.40;;
4460;SDS011;2243;48.812;9.232;2022-07-06T08:20:23;4.80;;;4.20;;
4460;SDS011;2243;48.812;9.232;2022-07-06T08:22:54;4.50;;;4.20;;
4460;SDS011;2243;48.812;9.232;2022-07-06T08:25:28;4.57;;;4.17;;
4460;SDS011;2243;48.812;9.232;2022-07-06T08:27:59;5.43;;;3.77;;
4460;SDS011;2243;48.812;9.232;2022-07-06T08:30:31;4.30;;;3.80;;
4460;SDS011;2243;48.812;9.232;2022-07-06T08:33:05;5.93;;;4.90;;
4460;SDS011;2243;48.812;9.232;2022-07-06T08:35:37;5.00;;;3.87;;
4460;SDS011;2243;48.812;9.232;2022-07-06T08:38:08;4.73;;;4.43;;
4460;SDS011;2243;48.812;9.232;2022-07-06T08:40:40;5.53;;;5.03;;
4460;SDS011;2243;48.812;9.232;2022-07-06T08:43:14;5.43;;;4.60;;
4460;SDS011;2243;48.812;9.232;2022-07-06T08:45:46;5.10;;;4.70;;
4460;SDS011;2243;48.812;9.232;2022-07-06T08:48:22;6.17;;;5.20;;
4460;SDS011;2243;48.812;9.232;2022-07-06T08:50:54;5.87;;;5.37;;
4460;SDS011;2243;48.812;9.232;2022-07-06T08:53:25;5.83;;;5.30;;
4460;SDS011;2243;48.812;9.232;2022-07-06T08:55:57;4.67;;;4.20;;
4460;SDS011;2243;48.812;9.232;2022-07-06T08:58:28;6.20;;;4.60;;
4460;SDS011;2243;48.812;9.232;2022-07-06T09:00:59;5.60;;;4.90;;
4460;SDS011;2243;48.812;9.232;2022-07-06T09:03:30;6.37;;;4.63;;
4460;SDS011;2243;48.812;9.232;2022-07-06T09:06:02;5.50;;;5.00;;
4460;SDS011;2243;48.812;9.232;2022-07-06T09:08:34;6.07;;;5.57;;
4460;SDS011;2243;48.812;9.232;2022-07-06T09:11:07;4.70;;;4.40;;
4460;SDS011;2243;48.812;9.232;2022-07-06T09:13:38;5.07;;;4.60;;
4460;SDS011;2243;48.812;9.232;2022-07-06T09:16:09;4.97;;;4.57;;
4460;SDS011;2243;48.812;9.232;2022-07-06T09:19:06;5.07;;;4.57;;
4460;SDS011;2243;48.812;9.232;2022-07-06T09:21:38;4.83;;;4.30;;
4460;SDS011;2243;48.812;9.232;2022-07-06T09:24:11;5.40;;;4.47;;
4460;SDS011;2243;48.812;9.232;2022-07-06T09:26:43;8.23;;;4.40;;
4460;SDS011;2243;48.812;9.232;2022-07-06T09:29:18;4.50;;;4.20;;
4460;SDS011;2243;48.812;9.232;2022-07-06T09:31:59;9.53;;;4.50;;
4460;SDS011;2243;48.812;9.232;2022-07-06T09:34:42;4.20;;;3.80;;
4460;SDS011;2243;48.812;9.232;2022-07-06T09:37:16;7.40;;;4.70;;
4460;SDS011;2243;48.812;9.232;2022-07-06T09:39:55;4.83;;;4.40;;
4460;SDS011;2243;48.812;9.232;2022-07-06T09:42:26;5.83;;;4.30;;
4460;SDS011;2243;48.812;9.232;2022-07-06T09:44:58;5.30;;;4.07;;
4460;SDS011;2243;48.812;9.232;2022-07-06T09:47:29;4.60;;;4.30;;
4460;SDS011;2243;48.812;9.232;2022-07-06T09:50:02;4.07;;;3.77;;
4460;SDS011;2243;48.812;9.232;2022-07-06T09:52:36;5.13;;;3.67;;
4460;SDS011;2243;48.812;9.232;2022-07-06T09:55:16;8.10;;;4.43;;
4460;SDS011;2243;48.812;9.232;2022-07-06T09:57:53;4.30;;;4.00;;
4460;SDS011;2243;48.812;9.232;2022-07-06T10:00:27;4.67;;;3.73;;
4460;SDS011;2243;48.812;9.232;2022-07-06T10:02:58;4.60;;;3.80;;
4460;SDS011;2243;48.812;9.232;2022-07-06T10:05:31;4.80;;;3.40;;
4460;SDS011;2243;48.812;9.232;2022-07-06T10:08:03;4.37;;;3.83;;
4460;SDS011;2243;48.812;9.232;2022-07-06T10:10:39;4.40;;;4.03;;
4460;SDS011;2243;48.812;9.232;2022-07-06T10:13:11;7.37;;;3.90;;
4460;SDS011;2243;48.812;9.232;2022-07-06T10:15:44;5.87;;;3.97;;
4460;SDS011;2243;48.812;9.232;2022-07-06T10:18:15;4.80;;;4.40;;
4460;SDS011;2243;48.812;9.232;2022-07-06T10:20:47;3.60;;;3.40;;
4460;SDS011;2243;48.812;9.232;2022-07-06T10:23:18;4.97;;;3.73;;
4460;SDS011;2243;48.812;9.232;2022-07-06T10:25:51;4.73;;;4.33;;
4460;SDS011;2243;48.812;9.232;2022-07-06T10:28:23;5.33;;;4.10;;
4460;SDS011;2243;48.812;9.232;2022-07-06T10:30:55;3.70;;;3.50;;
4460;SDS011;2243;48.812;9.232;2022-07-06T10:33:30;12.23;;;4.27;;
4460;SDS011;2243;48.812;9.232;2022-07-06T10:36:02;4.47;;;4.07;;
4460;SDS011;2243;48.812;9.232;2022-07-06T10:38:35;4.60;;;4.20;;
4460;SDS011;2243;48.812;9.232;2022-07-06T10:41:07;10.87;;;3.70;;
4460;SDS011;2243;48.812;9.232;2022-07-06T10:43:43;4.37;;;3.60;;
4460;SDS011;2243;48.812;9.232;2022-07-06T10:46:18;8.50;;;3.97;;
4460;SDS011;2243;48.812;9.232;2022-07-06T10:48:50;5.30;;;3.90;;
4460;SDS011;2243;48.812;9.232;2022-07-06T10:51:25;3.80;;;3.57;;
4460;SDS011;2243;48.812;9.232;2022-07-06T10:53:59;8.03;;;3.80;;
4460;SDS011;2243;48.812;9.232;2022-07-06T10:56:38;4.53;;;3.60;;
4460;SDS011;2243;48.812;9.232;2022-07-06T10:59:19;3.87;;;3.53;;
4460;SDS011;2243;48.812;9.232;2022-07-06T11:02:11;4.00;;;3.70;;
4460;SDS011;2243;48.812;9.232;2022-07-06T11:04:46;14.47;;;4.40;;
4460;SDS011;2243;48.812;9.232;2022-07-06T11:07:19;3.73;;;3.37;;
4460;SDS011;2243;48.812;9.232;2022-07-06T11:09:54;6.47;;;3.77;;
4460;SDS011;2243;48.812;9.232;2022-07-06T11:12:27;4.43;;;4.07;;
4460;SDS011;2243;48.812;9.232;2022-07-06T11:14:58;4.03;;;3.83;;
4460;SDS011;2243;48.812;9.232;2022-07-06T11:17:32;4.13;;;3.57;;
4460;SDS011;2243;48.812;9.232;2022-07-06T11:20:10;3.33;;;3.13;;
4460;SDS011;2243;48.812;9.232;2022-07-06T11:22:42;5.07;;;4.50;;
4460;SDS011;2243;48.812;9.232;2022-07-06T11:25:13;5.07;;;4.37;;
4460;SDS011;2243;48.812;9.232;2022-07-06T11:27:47;4.33;;;3.93;;
4460;SDS011;2243;48.812;9.232;2022-07-06T11:30:18;4.27;;;3.40;;
4460;SDS011;2243;48.812;9.232;2022-07-06T11:32:51;3.30;;;3.00;;
4460;SDS011;2243;48.812;9.232;2022-07-06T11:35:22;8.80;;;3.53;;
4460;SDS011;2243;48.812;9.232;2022-07-06T11:37:53;3.83;;;3.17;;
4460;SDS011;2243;48.812;9.232;2022-07-06T11:40:23;3.73;;;3.53;;
4460;SDS011;2243;48.812;9.232;2022-07-06T11:42:55;5.70;;;3.73;;
4460;SDS011;2243;48.812;9.232;2022-07-06T11:45:26;4.20;;;3.43;;
4460;SDS011;2243;48.812;9.232;2022-07-06T11:48:10;4.07;;;3.30;;
4460;SDS011;2243;48.812;9.232;2022-07-06T11:50:42;3.43;;;3.07;;
4460;SDS011;2243;48.812;9.232;2022-07-06T11:53:16;3.20;;;3.00;;
4460;SDS011;2243;48.812;9.232;2022-07-06T11:55:47;3.70;;;3.37;;
4460;SDS011;2243;48.812;9.232;2022-07-06T11:58:22;6.87;;;3.20;;
4460;SDS011;2243;48.812;9.232;2022-07-06T12:01:06;11.20;;;3.60;;
4460;SDS011;2243;48.812;9.232;2022-07-06T12:03:39;4.20;;;3.17;;
4460;SDS011;2243;48.812;9.232;2022-07-06T12:06:14;4.33;;;3.50;;
4460;SDS011;2243;48.812;9.232;2022-07-06T12:08:52;4.13;;;3.90;;
4460;SDS011;2243;48.812;9.232;2022-07-06T12:11:29;5.23;;;3.70;;
4460;SDS011;2243;48.812;9.232;2022-07-06T12:14:12;6.93;;;3.27;;
4460;SDS011;2243;48.812;9.232;2022-07-06T12:16:46;5.27;;;3.50;;
4460;SDS011;2243;48.812;9.232;2022-07-06T12:19:23;4.23;;;3.47;;
4460;SDS011;2243;48.812;9.232;2022-07-06T12:21:54;3.93;;;3.60;;
4460;SDS011;2243;48.812;9.232;2022-07-06T12:24:26;3.80;;;3.27;;
4460;SDS011;2243;48.812;9.232;2022-07-06T12:30:10;8.50;;;3.53;;
4460;SDS011;2243;48.812;9.232;2022-07-06T12:32:42;3.60;;;3.40;;
4460;SDS011;2243;48.812;9.232;2022-07-06T12:35:13;4.20;;;3.80;;
4460;SDS011;2243;48.812;9.232;2022-07-06T12:37:56;6.10;;;3.63;;
4460;SDS011;2243;48.812;9.232;2022-07-06T12:40:31;3.80;;;3.50;;
4460;SDS011;2243;48.812;9.232;2022-07-06T12:43:03;3.97;;;3.67;;
4460;SDS011;2243;48.812;9.232;2022-07-06T12:45:35;3.10;;;3.00;;
4460;SDS011;2243;48.812;9.232;2022-07-06T12:48:06;3.83;;;3.63;;
4460;SDS011;2243;48.812;9.232;2022-07-06T12:50:38;7.40;;;4.23;;
4460;SDS011;2243;48.812;9.232;2022-07-06T12:53:25;3.87;;;3.67;;
4460;SDS011;2243;48.812;9.232;2022-07-06T12:56:11;4.13;;;2.90;;
4460;SDS011;2243;48.812;9.232;2022-07-06T12:59:20;4.97;;;4.20;;
4460;SDS011;2243;48.812;9.232;2022-07-06T13:01:46;3.70;;;3.40;;
4460;SDS011;2243;48.812;9.232;2022-07-06T13:04:18;5.83;;;3.73;;
4460;SDS011;2243;48.812;9.232;2022-07-06T13:06:50;3.17;;;2.97;;
4460;SDS011;2243;48.812;9.232;2022-07-06T13:09:22;2.93;;;2.73;;
4460;SDS011;2243;48.812;9.232;2022-07-06T13:11:53;4.10;;;3.70;;
4460;SDS011;2243;48.812;9.232;2022-07-06T13:14:24;3.40;;;3.10;;
4460;SDS011;2243;48.812;9.232;2022-07-06T13:16:55;3.40;;;3.13;;
4460;SDS011;2243;48.812;9.232;2022-07-06T13:19:26;5.37;;;3.30;;
4460;SDS011;2243;48.812;9.232;2022-07-06T13:21:57;3.67;;;2.73;;
4460;SDS011;2243;48.812;9.232;2022-07-06T13:24:28;3.40;;;3.10;;
4460;SDS011;2243;48.812;9.232;2022-07-06T13:27:02;3.93;;;3.57;;
4460;SDS011;2243;48.812;9.232;2022-07-06T13:29:33;3.43;;;3.13;;
4460;SDS011;2243;48.812;9.232;2022-07-06T13:32:05;4.30;;;3.33;;
4460;SDS011;2243;48.812;9.232;2022-07-06T13:34:37;3.07;;;2.87;;
4460;SDS011;2243;48.812;9.232;2022-07-06T13:37:07;3.63;;;3.30;;
4460;SDS011;2243;48.812;9.232;2022-07-06T13:39:38;3.10;;;2.73;;
4460;SDS011;2243;48.812;9.232;2022-07-06T13:42:09;5.80;;;3.70;;
4460;SDS011;2243;48.812;9.232;2022-07-06T13:44:40;2.90;;;2.70;;
4460;SDS011;2243;48.812;9.232;2022-07-06T13:47:11;3.23;;;3.00;;
4460;SDS011;2243;48.812;9.232;2022-07-06T13:49:42;6.70;;;3.30;;
4460;SDS011;2243;48.812;9.232;2022-07-06T13:52:17;3.23;;;3.03;;
4460;SDS011;2243;48.812;9.232;2022-07-06T13:54:48;2.93;;;2.80;;
4460;SDS011;2243;48.812;9.232;2022-07-06T13:57:19;2.80;;;2.60;;
4460;SDS011;2243;48.812;9.232;2022-07-06T13:59:50;3.23;;;2.90;;
4460;SDS011;2243;48.812;9.232;2022-07-06T14:02:21;3.63;;;3.33;;
4460;SDS011;2243;48.812;9.232;2022-07-06T14:04:52;7.93;;;3.10;;
4460;SDS011;2243;48.812;9.232;2022-07-06T14:07:23;3.47;;;3.27;;
4460;SDS011;2243;48.812;9.232;2022-07-06T14:09:54;4.53;;;3.03;;
4460;SDS011;2243;48.812;9.232;2022-07-06T14:12:26;4.27;;;3.93;;
4460;SDS011;2243;48.812;9.232;2022-07-06T14:14:57;3.40;;;3.13;;
4460;SDS011;2243;48.812;9.232;2022-07-06T14:17:28;4.27;;;3.97;;
4460;SDS011;2243;48.812;9.232;2022-07-06T14:19:59;3.10;;;2.90;;
4460;SDS011;2243;48.812;9.232;2022-07-06T14:22:30;3.00;;;2.77;;
4460;SDS011;2243;48.812;9.232;2022-07-06T14:25:01;3.07;;;2.87;;
4460;SDS011;2243;48.812;9.232;2022-07-06T14:27:37;3.10;;;2.90;;
4460;SDS011;2243;48.812;9.232;2022-07-06T14:30:08;4.67;;;3.40;;
4460;SDS011;2243;48.812;9.232;2022-07-06T14:32:40;5.53;;;2.93;;
4460;SDS011;2243;48.812;9.232;2022-07-06T14:35:14;3.77;;;3.03;;
4460;SDS011;2243;48.812;9.232;2022-07-06T14:37:45;3.37;;;3.17;;
4460;SDS011;2243;48.812;9.232;2022-07-06T14:40:19;3.80;;;3.40;;
4460;SDS011;2243;48.812;9.232;2022-07-06T14:42:53;2.70;;;2.60;;
4460;SDS011;2243;48.812;9.232;2022-07-06T14:45:24;5.20;;;2.70;;
4460;SDS011;2243;48.812;9.232;2022-07-06T14:47:56;3.00;;;2.80;;
4460;SDS011;2243;48.812;9.232;2022-07-06T14:50:27;6.33;;;2.73;;
4460;SDS011;2243;48.812;9.232;2022-07-06T14:52:58;2.60;;;2.50;;
4460;SDS011;2243;48.812;9.232;2022-07-06T14:55:29;3.30;;;2.90;;
4460;SDS011;2243;48.812;9.232;2022-07-06T14:58:00;6.10;;;2.90;;
4460;SDS011;2243;48.812;9.232;2022-07-06T15:00:31;2.40;;;2.30;;
4460;SDS011;2243;48.812;9.232;2022-07-06T15:03:02;2.60;;;2.47;;
4460;SDS011;2243;48.812;9.232;2022-07-06T15:05:36;2.53;;;2.33;;
4460;SDS011;2243;48.812;9.232;2022-07-06T15:08:08;6.87;;;2.50;;
4460;SDS011;2243;48.812;9.232;2022-07-06T15:10:39;2.97;;;2.77;;
4460;SDS011;2243;48.812;9.232;2022-07-06T15:13:11;2.73;;;2.53;;
4460;SDS011;2243;48.812;9.232;2022-07-06T15:15:42;5.37;;;3.00;;
4460;SDS011;2243;48.812;9.232;2022-07-06T15:18:26;2.90;;;2.63;;
4460;SDS011;2243;48.812;9.232;2022-07-06T15:20:57;2.40;;;2.30;;
4460;SDS011;2243;48.812;9.232;2022-07-06T15:23:28;2.73;;;2.50;;
4460;SDS011;2243;48.812;9.232;2022-07-06T15:26:01;2.93;;;2.80;;
4460;SDS011;2243;48.812;9.232;2022-07-06T15:28:33;3.53;;;3.23;;
4460;SDS011;2243;48.812;9.232;2022-07-06T15:31:04;6.70;;;2.50;;
4460;SDS011;2243;48.812;9.232;2022-07-06T15:33:37;4.57;;;3.27;;
4460;SDS011;2243;48.812;9.232;2022-07-06T15:36:09;3.17;;;2.87;;
4460;SDS011;2243;48.812;9.232;2022-07-06T15:38:40;2.97;;;2.77;;
4460;SDS011;2243;48.812;9.232;2022-07-06T15:41:10;2.50;;;2.40;;
4460;SDS011;2243;48.812;9.232;2022-07-06T15:43:41;2.70;;;2.50;;
4460;SDS011;2243;48.812;9.232;2022-07-06T15:46:12;2.73;;;2.60;;
4460;SDS011;2243;48.812;9.232;2022-07-06T15:48:44;6.80;;;2.83;;
4460;SDS011;2243;48.812;9.232;2022-07-06T15:51:15;3.67;;;2.63;;